createdAt,value
2022-09-05T00:02:48.868Z,14.19
2022-09-05T00:05:54.061Z,14.18
2022-09-05T00:09:43.344Z,14.22
2022-09-05T00:12:16.152Z,14.16
2022-09-05T00:15:20.088Z,14.10
2022-09-05T00:23:19.917Z,14.09
2022-09-05T00:24:29.813Z,14.05
2022-09-05T00:25:30.650Z,14.10
2022-09-05T00:28:29.566Z,14.14
2022-09-05T00:31:56.596Z,14.20
2022-09-05T00:34:50.306Z,14.21
2022-09-05T00:37:44.608Z,14.17
2022-09-05T00:40:26.321Z,14.17
2022-09-05T00:43:04.609Z,14.16
2022-09-05T00:45:58.698Z,14.22
2022-09-05T00:49:29.807Z,14.30
2022-09-05T00:52:34.404Z,14.20
2022-09-05T00:55:40.922Z,14.12
2022-09-05T00:58:45.210Z,14.09
2022-09-05T01:02:04.233Z,14.14
2022-09-05T01:05:07.455Z,14.15
2022-09-05T01:07:58.545Z,14.18
2022-09-05T01:11:48.678Z,14.08
2022-09-05T01:15:17.691Z,13.99
2022-09-05T01:18:00.282Z,14.01
2022-09-05T01:20:57.366Z,14.03
2022-09-05T01:23:54.744Z,13.99
2022-09-05T01:27:08.370Z,14.03
2022-09-05T01:30:15.300Z,13.95
2022-09-05T01:33:11.553Z,13.91
2022-09-05T01:36:30.356Z,13.82
2022-09-05T01:40:14.946Z,13.84
2022-09-05T01:43:01.600Z,13.81
2022-09-05T01:46:11.669Z,13.79
2022-09-05T01:49:00.077Z,13.81
2022-09-05T01:51:45.263Z,13.74
2022-09-05T01:55:06.233Z,13.69
2022-09-05T01:58:24.598Z,13.66
2022-09-05T02:01:25.100Z,13.66
2022-09-05T02:04:49.070Z,13.56
2022-09-05T02:07:31.813Z,13.56
2022-09-05T02:10:50.875Z,13.45
2022-09-05T02:13:35.722Z,13.46
2022-09-05T02:16:28.119Z,13.43
2022-09-05T02:19:31.208Z,13.36
2022-09-05T02:22:22.763Z,13.30
2022-09-05T02:26:01.633Z,13.27
2022-09-05T02:28:20.939Z,13.24
2022-09-05T02:31:19.987Z,13.25
2022-09-05T02:34:17.562Z,13.20
2022-09-05T02:38:52.398Z,13.16
2022-09-05T02:45:02.987Z,13.21
2022-09-05T02:45:13.847Z,13.16
2022-09-05T02:47:30.871Z,13.15
2022-09-05T02:57:27.276Z,13.12
2022-09-05T02:57:39.661Z,13.13
2022-09-05T02:57:40.245Z,13.10
2022-09-05T03:00:16.049Z,13.11
2022-09-05T03:03:51.356Z,13.03
2022-09-05T03:07:17.876Z,12.97
2022-09-05T03:09:53.352Z,12.98
2022-09-05T03:12:53.032Z,12.99
2022-09-05T03:16:04.794Z,12.94
2022-09-05T03:19:46.197Z,12.97
2022-09-05T03:23:06.662Z,12.92
2022-09-05T03:26:06.866Z,12.91
2022-09-05T03:29:34.605Z,12.86
2022-09-05T03:32:56.474Z,12.78
2022-09-05T03:36:29.160Z,12.73
2022-09-05T03:39:36.292Z,12.71
2022-09-05T03:42:43.687Z,12.71
2022-09-05T03:45:55.528Z,12.66
2022-09-05T03:48:29.337Z,12.61
2022-09-05T03:57:06.920Z,12.64
2022-09-05T03:57:16.931Z,12.63
2022-09-05T03:58:55.993Z,12.54
2022-09-05T04:02:40.403Z,12.53
2022-09-05T04:08:17.180Z,12.51
2022-09-05T04:08:45.178Z,12.48
2022-09-05T04:11:47.057Z,12.41
2022-09-05T04:14:28.337Z,12.46
2022-09-05T04:17:10.965Z,12.45
2022-09-05T04:19:55.298Z,12.42
2022-09-05T04:23:18.643Z,12.41
2022-09-05T04:26:11.289Z,12.39
2022-09-05T04:29:18.253Z,12.52
2022-09-05T04:32:24.139Z,12.55
2022-09-05T04:35:19.254Z,12.48
2022-09-05T04:38:14.417Z,12.47
2022-09-05T04:41:11.809Z,12.52
2022-09-05T04:44:02.770Z,12.53
2022-09-05T04:46:52.808Z,12.61
2022-09-05T04:49:37.374Z,12.57
2022-09-05T04:52:31.826Z,12.55
2022-09-05T04:55:16.362Z,12.59
2022-09-05T04:58:27.531Z,12.59
2022-09-05T05:06:00.207Z,12.62
2022-09-05T05:06:14.078Z,12.67
2022-09-05T05:08:12.666Z,12.75
2022-09-05T05:17:05.142Z,12.85
2022-09-05T05:18:09.766Z,12.95
2022-09-05T05:18:42.358Z,13.08
2022-09-05T05:21:16.637Z,13.19
2022-09-05T05:24:01.023Z,13.30
2022-09-05T05:26:57.120Z,13.35
2022-09-05T05:29:54.277Z,13.33
2022-09-05T05:32:49.190Z,13.39
2022-09-05T05:35:31.472Z,13.42
2022-09-05T05:38:16.464Z,13.44
2022-09-05T05:41:40.009Z,13.43
2022-09-05T05:44:37.057Z,13.51
2022-09-05T05:47:17.587Z,13.57
2022-09-05T05:50:56.389Z,13.60
2022-09-05T05:53:58.948Z,13.71
2022-09-05T05:57:15.628Z,13.80
2022-09-05T06:00:27.300Z,13.79
2022-09-05T06:03:24.943Z,13.81
2022-09-05T06:06:43.067Z,13.91
2022-09-05T06:14:54.718Z,13.99
2022-09-05T06:15:01.054Z,14.14
2022-09-05T06:16:37.954Z,14.55
2022-09-05T06:20:49.044Z,14.70
2022-09-05T06:23:46.196Z,14.93
2022-09-05T06:26:49.290Z,14.92
2022-09-05T06:30:04.135Z,14.95
2022-09-05T06:33:39.852Z,15.12
2022-09-05T06:36:45.291Z,15.29
2022-09-05T06:39:52.986Z,15.42
2022-09-05T06:42:58.662Z,15.64
2022-09-05T06:46:13.085Z,15.84
2022-09-05T06:49:32.276Z,16.05
2022-09-05T06:52:55.397Z,16.48
2022-09-05T06:56:02.108Z,16.80
2022-09-05T06:59:26.484Z,16.55
2022-09-05T07:02:59.616Z,16.61
2022-09-05T07:06:07.576Z,16.58
2022-09-05T07:09:01.549Z,16.57
2022-09-05T07:12:09.637Z,16.82
2022-09-05T07:15:29.008Z,17.04
2022-09-05T07:18:17.075Z,17.07
2022-09-05T07:21:16.458Z,17.17
2022-09-05T07:24:09.084Z,17.44
2022-09-05T07:26:53.852Z,17.45
2022-09-05T07:29:52.452Z,17.51
2022-09-05T07:32:41.101Z,17.67
2022-09-05T07:35:29.348Z,17.72
2022-09-05T07:38:15.781Z,17.84
2022-09-05T07:41:07.718Z,17.92
2022-09-05T07:43:46.377Z,18.09
2022-09-05T07:46:24.905Z,18.09
2022-09-05T07:49:01.049Z,18.05
2022-09-05T07:56:46.797Z,18.14
2022-09-05T07:56:59.518Z,18.20
2022-09-05T07:57:43.720Z,18.30
2022-09-05T08:00:29.221Z,18.58
2022-09-05T08:03:14.119Z,18.91
2022-09-05T08:05:55.888Z,19.18
2022-09-05T08:09:05.635Z,19.32
2022-09-05T08:11:39.217Z,19.04
2022-09-05T08:14:49.299Z,19.07
2022-09-05T08:17:30.286Z,19.30
2022-09-05T08:20:32.936Z,19.25
2022-09-05T08:23:34.697Z,19.32
2022-09-05T08:26:17.778Z,19.63
2022-09-05T08:29:24.327Z,19.88
2022-09-05T08:32:11.968Z,20.02
2022-09-05T08:35:28.984Z,19.70
2022-09-05T08:37:59.747Z,19.87
2022-09-05T08:40:39.020Z,20.18
2022-09-05T08:46:36.772Z,20.19
2022-09-05T08:47:13.965Z,20.35
2022-09-05T08:50:18.229Z,20.57
2022-09-05T08:53:26.218Z,20.93
2022-09-05T08:56:22.655Z,20.99
2022-09-05T08:59:31.667Z,21.22
2022-09-05T09:02:48.450Z,21.31
2022-09-05T09:06:18.610Z,21.17
2022-09-05T09:09:13.917Z,21.18
2022-09-05T09:12:29.039Z,21.21
2022-09-05T09:15:25.972Z,21.46
2022-09-05T09:17:53.974Z,21.47
2022-09-05T09:20:38.936Z,21.37
2022-09-05T09:23:44.294Z,21.70
2022-09-05T09:26:28.261Z,21.77
2022-09-05T09:29:10.472Z,21.83
2022-09-05T09:32:21.786Z,21.83
2022-09-05T09:35:05.659Z,21.86
2022-09-05T09:38:19.642Z,22.00
2022-09-05T09:41:50.103Z,22.24
2022-09-05T09:45:22.572Z,22.70
2022-09-05T09:48:46.298Z,22.48
2022-09-05T09:51:55.580Z,22.64
2022-09-05T09:55:46.444Z,22.29
2022-09-05T09:58:38.864Z,22.33
2022-09-05T10:01:35.147Z,22.62
2022-09-05T10:10:39.975Z,22.64
2022-09-05T10:10:49.595Z,22.46
2022-09-05T10:11:53.088Z,22.51
2022-09-05T10:15:31.195Z,22.60
2022-09-05T10:18:56.642Z,22.47
2022-09-05T10:22:37.866Z,22.65
2022-09-05T10:26:10.442Z,22.88
2022-09-05T10:28:55.462Z,23.08
2022-09-05T10:34:53.461Z,23.41
2022-09-05T10:35:22.338Z,23.37
2022-09-05T10:38:44.705Z,23.40
2022-09-05T10:41:23.031Z,23.15
2022-09-05T10:44:07.460Z,22.92
2022-09-05T10:47:42.128Z,23.03
2022-09-05T10:50:28.423Z,23.10
2022-09-05T10:53:39.582Z,23.16
2022-09-05T10:56:32.086Z,23.17
2022-09-05T11:01:19.369Z,22.94
2022-09-05T11:02:34.804Z,23.14
2022-09-05T11:05:27.141Z,23.41
2022-09-05T11:08:06.650Z,23.41
2022-09-05T11:11:28.714Z,22.92
2022-09-05T11:14:53.592Z,23.07
2022-09-05T11:17:32.001Z,22.98
2022-09-05T11:20:38.983Z,22.96
2022-09-05T11:23:27.550Z,23.06
2022-09-05T11:26:17.616Z,23.03
2022-09-05T11:29:05.171Z,22.87
2022-09-05T11:33:34.324Z,22.90
2022-09-05T11:39:51.604Z,22.96
2022-09-05T11:39:54.023Z,22.71
2022-09-05T11:41:43.119Z,22.90
2022-09-05T11:44:43.995Z,23.05
2022-09-05T11:47:48.584Z,23.15
2022-09-05T11:51:03.976Z,23.32
2022-09-05T11:54:01.625Z,23.24
2022-09-05T11:57:33.581Z,23.15
2022-09-05T12:00:31.328Z,23.10
2022-09-05T12:03:58.917Z,22.97
2022-09-05T12:07:38.630Z,23.26
2022-09-05T12:10:46.725Z,23.43
2022-09-05T12:14:21.062Z,23.61
2022-09-05T12:17:40.024Z,23.54
2022-09-05T12:20:43.415Z,23.70
2022-09-05T12:24:02.340Z,23.57
2022-09-05T12:27:38.042Z,23.49
2022-09-05T12:30:00.073Z,23.53
2022-09-05T12:36:01.435Z,23.48
2022-09-05T12:36:11.168Z,23.35
2022-09-05T12:41:14.895Z,23.33
2022-09-05T12:43:56.091Z,23.50
2022-09-05T12:48:55.561Z,23.22
2022-09-05T12:51:46.222Z,23.34
2022-09-05T12:54:41.974Z,23.49
2022-09-05T13:03:02.855Z,23.48
2022-09-05T13:03:14.182Z,23.59
2022-09-05T13:03:31.939Z,23.47
2022-09-05T13:06:09.398Z,23.25
2022-09-05T13:08:59.467Z,23.47
2022-09-05T13:14:49.267Z,23.53
2022-09-05T13:15:18.754Z,23.36
2022-09-05T13:18:10.476Z,23.45
2022-09-05T13:20:51.620Z,23.32
2022-09-05T13:23:50.585Z,23.12
2022-09-05T13:26:55.479Z,23.19
2022-09-05T13:29:35.152Z,23.36
2022-09-05T13:37:59.685Z,23.43
2022-09-05T13:38:16.419Z,23.56
2022-09-05T13:39:39.611Z,23.65
2022-09-05T13:42:18.702Z,23.86
2022-09-05T13:44:56.885Z,23.96
2022-09-05T13:47:57.736Z,23.97
2022-09-05T13:50:44.830Z,23.84
2022-09-05T13:53:52.037Z,23.92
2022-09-05T13:56:32.394Z,24.07
2022-09-05T13:59:14.229Z,24.07
2022-09-05T14:06:45.648Z,24.10
2022-09-05T14:09:52.217Z,24.17
2022-09-05T14:12:45.787Z,24.66
2022-09-05T14:15:43.657Z,24.74
2022-09-05T14:18:55.536Z,24.88
2022-09-05T14:21:33.390Z,24.60
2022-09-05T14:24:28.144Z,24.83
2022-09-05T14:27:03.184Z,24.95
2022-09-05T14:29:52.247Z,25.14
2022-09-05T14:37:39.200Z,25.17
2022-09-05T14:37:49.287Z,25.43
2022-09-05T14:40:30.471Z,25.92
2022-09-05T14:43:57.019Z,26.33
2022-09-05T14:47:05.124Z,26.40
2022-09-05T14:50:24.636Z,26.49
2022-09-05T14:58:49.225Z,27.17
2022-09-05T15:02:41.077Z,27.15
2022-09-05T15:02:54.608Z,27.53
2022-09-05T15:05:11.582Z,26.89
2022-09-05T15:07:50.684Z,26.96
2022-09-05T15:12:19.833Z,27.55
2022-09-05T15:13:25.964Z,27.60
2022-09-05T15:16:09.324Z,27.59
2022-09-05T15:18:48.342Z,27.07
2022-09-05T15:21:39.084Z,27.10
2022-09-05T15:24:30.989Z,26.93
2022-09-05T15:27:04.536Z,26.64
2022-09-05T15:29:35.367Z,26.31
2022-09-05T15:32:28.096Z,26.23
2022-09-05T15:35:00.504Z,25.90
2022-09-05T15:37:45.043Z,25.94
2022-09-05T15:40:21.930Z,26.22
2022-09-05T15:42:55.681Z,25.31
2022-09-05T15:45:37.017Z,25.15
2022-09-05T15:48:23.701Z,25.03
2022-09-05T15:50:59.900Z,25.16
2022-09-05T15:53:37.672Z,24.52
2022-09-05T15:56:10.592Z,23.95
2022-09-05T15:58:59.841Z,23.67
2022-09-05T16:01:58.181Z,23.50
2022-09-05T16:10:26.741Z,23.19
2022-09-05T16:10:40.246Z,23.06
2022-09-05T16:11:06.978Z,22.95
2022-09-05T16:13:52.650Z,22.94
2022-09-05T16:20:29.194Z,22.94
2022-09-05T16:23:27.784Z,22.74
2022-09-05T16:23:33.322Z,22.81
2022-09-05T16:25:30.917Z,22.74
2022-09-05T16:28:39.279Z,22.55
2022-09-05T16:31:38.761Z,22.43
2022-09-05T16:34:30.537Z,22.19
2022-09-05T16:37:15.788Z,22.16
2022-09-05T16:40:23.523Z,22.13
2022-09-05T16:43:31.185Z,21.98
2022-09-05T16:46:40.558Z,21.88
2022-09-05T16:49:41.535Z,21.76
2022-09-05T16:52:17.955Z,21.75
2022-09-05T16:55:32.591Z,21.60
2022-09-05T16:58:22.561Z,21.44
2022-09-05T17:01:02.708Z,21.38
2022-09-05T17:04:18.554Z,21.37
2022-09-05T17:07:24.622Z,21.27
2022-09-05T17:09:51.743Z,21.18
2022-09-05T17:12:33.669Z,21.10
2022-09-05T17:15:36.285Z,21.05
2022-09-05T17:18:24.325Z,21.00
2022-09-05T17:21:18.740Z,20.85
2022-09-05T17:29:16.841Z,20.70
2022-09-05T17:29:47.017Z,20.67
2022-09-05T17:31:48.836Z,20.54
2022-09-05T17:33:45.867Z,20.43
2022-09-05T17:36:41.184Z,20.34
2022-09-05T17:39:49.483Z,20.41
2022-09-05T17:42:41.506Z,20.29
2022-09-05T17:45:33.989Z,20.16
2022-09-05T17:48:01.519Z,20.01
2022-09-05T17:50:33.337Z,19.92
2022-09-05T17:53:25.117Z,19.84
2022-09-05T17:55:55.108Z,19.68
2022-09-05T17:58:49.591Z,19.55
2022-09-05T18:01:28.248Z,19.41
2022-09-05T18:04:11.301Z,19.31
2022-09-05T18:06:58.919Z,19.25
2022-09-05T18:09:39.992Z,19.11
2022-09-05T18:13:31.189Z,18.98
2022-09-05T18:15:27.480Z,18.91
2022-09-05T18:17:54.429Z,18.88
2022-09-05T18:20:36.523Z,18.80
2022-09-05T18:23:54.151Z,18.78
2022-09-05T18:26:28.369Z,18.68
2022-09-05T18:33:39.756Z,18.57
2022-09-05T18:36:25.480Z,18.52
2022-09-05T18:39:29.358Z,18.46
2022-09-05T18:42:25.516Z,18.42
2022-09-05T18:45:15.042Z,18.36
2022-09-05T18:48:06.258Z,18.26
2022-09-05T18:50:47.002Z,18.19
2022-09-05T18:53:25.799Z,18.11
2022-09-05T18:56:27.637Z,18.07
2022-09-05T18:59:34.558Z,18.04
2022-09-05T19:02:51.553Z,17.95
2022-09-05T19:06:34.590Z,17.86
2022-09-05T19:09:28.616Z,17.77
2022-09-05T19:12:31.816Z,17.77
2022-09-05T19:15:13.899Z,17.73
2022-09-05T19:17:52.250Z,17.70
2022-09-05T19:20:56.379Z,17.66
2022-09-05T19:23:35.670Z,17.63
2022-09-05T19:26:09.593Z,17.58
2022-09-05T19:36:40.489Z,17.53
2022-09-05T19:36:52.545Z,17.47
2022-09-05T19:37:06.088Z,17.53
2022-09-05T19:37:47.243Z,17.49
2022-09-05T19:47:27.911Z,17.49
2022-09-05T19:47:40.835Z,17.41
2022-09-05T19:47:41.271Z,17.45
2022-09-05T19:49:12.170Z,17.41
2022-09-05T19:51:41.877Z,17.36
2022-09-05T19:54:36.234Z,17.25
2022-09-05T19:57:14.590Z,17.14
2022-09-05T19:59:46.909Z,17.09
2022-09-05T20:02:29.849Z,17.01
2022-09-05T20:05:03.717Z,16.95
2022-09-05T20:07:35.892Z,16.88
2022-09-05T20:10:05.448Z,16.86
2022-09-05T20:12:39.096Z,16.77
2022-09-05T20:15:37.195Z,16.74
2022-09-05T20:18:42.212Z,16.71
2022-09-05T20:21:30.431Z,16.66
2022-09-05T20:23:59.902Z,16.66
2022-09-05T20:26:33.777Z,16.71
2022-09-05T20:29:11.447Z,16.69
2022-09-05T20:31:39.345Z,16.61
2022-09-05T20:35:15.983Z,16.54
2022-09-05T20:43:08.643Z,16.50
2022-09-05T20:43:19.945Z,16.52
2022-09-05T20:43:20.299Z,16.52
2022-09-05T20:46:49.697Z,16.53
2022-09-05T20:54:06.108Z,16.43
2022-09-05T20:54:15.608Z,16.40
2022-09-05T20:54:34.733Z,16.35
2022-09-05T20:57:23.036Z,16.30
2022-09-05T20:59:50.314Z,16.29
2022-09-05T21:02:33.113Z,16.43
2022-09-05T21:05:20.176Z,16.47
2022-09-05T21:08:07.692Z,16.54
2022-09-05T21:10:56.359Z,16.54
2022-09-05T21:13:31.142Z,16.58
2022-09-05T21:16:00.882Z,16.53
2022-09-05T21:18:34.166Z,16.53
2022-09-05T21:21:17.312Z,16.46
2022-09-05T21:24:17.479Z,16.44
2022-09-05T21:26:49.610Z,16.40
2022-09-05T21:29:32.981Z,16.36
2022-09-05T21:32:03.989Z,16.30
2022-09-05T21:34:55.063Z,16.28
2022-09-05T21:37:23.112Z,16.26
2022-09-05T21:39:58.508Z,16.19
2022-09-05T21:46:22.133Z,16.11
2022-09-05T21:47:43.333Z,16.10
2022-09-05T21:48:17.457Z,16.03
2022-09-05T21:50:51.431Z,16.00
2022-09-05T21:59:14.714Z,16.13
2022-09-05T21:59:22.613Z,16.05
2022-09-05T21:59:36.802Z,15.92
2022-09-05T22:02:08.681Z,16.05
2022-09-05T22:04:41.270Z,15.95
2022-09-05T22:07:19.560Z,15.81
2022-09-05T22:09:59.231Z,15.73
2022-09-05T22:12:31.433Z,15.73
2022-09-05T22:15:04.552Z,15.70
2022-09-05T22:17:48.954Z,15.70
2022-09-05T22:20:20.913Z,15.67
2022-09-05T22:22:56.795Z,15.66
2022-09-05T22:25:34.055Z,15.67
2022-09-05T22:28:26.331Z,15.61
2022-09-05T22:31:07.241Z,15.54
2022-09-05T22:33:36.107Z,15.54
2022-09-05T22:36:04.701Z,15.54
2022-09-05T22:38:33.341Z,15.52
2022-09-05T22:41:00.681Z,15.46
2022-09-05T22:43:33.024Z,15.40
2022-09-05T22:46:00.207Z,15.38
2022-09-05T22:48:27.246Z,15.32
2022-09-05T22:50:54.306Z,15.25
2022-09-05T22:53:21.788Z,15.23
2022-09-05T22:56:02.611Z,15.18
2022-09-05T22:58:30.364Z,15.19
2022-09-05T23:01:01.702Z,15.26
2022-09-05T23:03:28.872Z,15.30
2022-09-05T23:05:55.961Z,15.30
2022-09-05T23:08:23.073Z,15.26
2022-09-05T23:10:50.014Z,15.19
2022-09-05T23:13:17.018Z,15.27
2022-09-05T23:15:44.129Z,15.18
2022-09-05T23:18:11.138Z,15.13
2022-09-05T23:20:38.358Z,15.18
2022-09-05T23:23:08.646Z,15.16
2022-09-05T23:25:36.367Z,15.15
2022-09-05T23:28:09.838Z,15.14
2022-09-05T23:30:39.055Z,15.08
2022-09-05T23:33:10.902Z,15.05
2022-09-05T23:35:38.270Z,15.02
2022-09-05T23:38:11.290Z,14.96
2022-09-05T23:40:39.465Z,15.01
2022-09-05T23:43:07.941Z,15.03
2022-09-05T23:45:35.252Z,15.06
2022-09-05T23:48:03.025Z,15.07
2022-09-05T23:50:30.109Z,14.95
2022-09-05T23:53:01.774Z,14.84
2022-09-05T23:55:29.895Z,14.77
2022-09-05T23:57:59.112Z,14.72
